createdAt,value
2023-01-01T00:00:52.150Z,97096.50
2023-01-01T00:03:20.632Z,97092.88
2023-01-01T00:05:49.469Z,97094.13
2023-01-01T00:08:18.120Z,97095.41
2023-01-01T00:10:46.309Z,97096.59
2023-01-01T00:13:14.734Z,97098.53
2023-01-01T00:15:44.456Z,97082.91
2023-01-01T00:18:12.816Z,97096.78
2023-01-01T00:20:41.604Z,97099.38
2023-01-01T00:23:10.037Z,97088.22
2023-01-01T00:25:38.366Z,97098.34
2023-01-01T00:28:07.236Z,97100.72
2023-01-01T00:30:35.551Z,97099.38
2023-01-01T00:33:05.507Z,97099.66
2023-01-01T00:35:35.045Z,97102.84
2023-01-01T00:38:03.677Z,97102.72
2023-01-01T00:40:31.897Z,97100.53
2023-01-01T00:43:00.202Z,97107.72
2023-01-01T00:45:28.362Z,97112.03
2023-01-01T00:47:56.648Z,97119.00
2023-01-01T00:50:26.041Z,97112.38
2023-01-01T00:52:54.700Z,97114.50
2023-01-01T00:55:23.432Z,97120.16
2023-01-01T00:57:51.530Z,97115.75
2023-01-01T01:00:20.385Z,97116.94
2023-01-01T01:02:48.649Z,97130.97
2023-01-01T01:05:17.097Z,97129.97
2023-01-01T01:07:47.150Z,97138.41
2023-01-01T01:10:15.597Z,97136.56
2023-01-01T01:12:43.874Z,97146.22
2023-01-01T01:15:12.758Z,97141.09
2023-01-01T01:17:41.189Z,97144.44
2023-01-01T01:20:11.091Z,97141.66
2023-01-01T01:22:39.620Z,97139.44
2023-01-01T01:25:11.261Z,97145.50
2023-01-01T01:27:40.131Z,97139.66
2023-01-01T01:30:09.807Z,97160.91
2023-01-01T01:32:38.198Z,97157.84
2023-01-01T01:35:07.069Z,97162.25
2023-01-01T01:37:35.658Z,97165.53
2023-01-01T01:40:04.193Z,97154.28
2023-01-01T01:42:34.080Z,97163.03
2023-01-01T01:45:03.780Z,97155.00
2023-01-01T01:47:36.964Z,97156.44
2023-01-01T01:50:10.617Z,97152.97
2023-01-01T01:52:42.732Z,97146.16
2023-01-01T01:55:11.891Z,97146.97
2023-01-01T01:57:42.960Z,97154.47
2023-01-01T02:00:13.015Z,97144.06
2023-01-01T02:02:49.539Z,97150.22
2023-01-01T02:05:20.365Z,97147.72
2023-01-01T02:07:48.872Z,97161.06
2023-01-01T02:10:17.483Z,97162.19
2023-01-01T02:12:47.323Z,97165.97
2023-01-01T02:15:15.813Z,97172.84
2023-01-01T02:17:52.509Z,97166.31
2023-01-01T02:20:30.315Z,97170.34
2023-01-01T02:23:17.122Z,97168.88
2023-01-01T02:25:57.178Z,97174.06
2023-01-01T02:28:42.967Z,97183.03
2023-01-01T02:31:21.238Z,97183.13
2023-01-01T02:33:53.672Z,97179.53
2023-01-01T02:36:25.038Z,97185.94
2023-01-01T02:38:58.265Z,97188.13
2023-01-01T02:41:29.701Z,97194.63
2023-01-01T02:46:32.858Z,97196.41
2023-01-01T02:49:07.961Z,97182.72
2023-01-01T02:51:47.997Z,97191.66
2023-01-01T02:54:26.219Z,97181.03
2023-01-01T02:57:05.951Z,97188.97
2023-01-01T03:03:19.808Z,97193.59
2023-01-01T03:06:14.962Z,97191.34
2023-01-01T03:08:54.419Z,97191.66
2023-01-01T03:11:25.888Z,97198.59
2023-01-01T03:14:00.780Z,97192.78
2023-01-01T03:16:35.952Z,97192.78
2023-01-01T03:19:13.213Z,97192.66
2023-01-01T03:21:49.694Z,97195.38
2023-01-01T03:24:23.977Z,97186.31
2023-01-01T03:26:56.695Z,97191.66
2023-01-01T03:29:27.325Z,97198.22
2023-01-01T03:32:00.111Z,97191.13
2023-01-01T03:34:34.111Z,97190.31
2023-01-01T03:37:07.953Z,97181.19
2023-01-01T03:39:39.401Z,97181.53
2023-01-01T03:42:18.240Z,97182.50
2023-01-01T03:44:50.282Z,97185.75
2023-01-01T03:47:20.744Z,97185.59
2023-01-01T03:49:49.417Z,97187.81
2023-01-01T03:52:32.094Z,97188.09
2023-01-01T03:55:07.766Z,97190.31
2023-01-01T03:57:45.194Z,97195.41
2023-01-01T04:00:16.693Z,97187.53
2023-01-01T04:02:53.877Z,97194.22
2023-01-01T04:05:23.240Z,97193.88
2023-01-01T04:07:53.050Z,97194.16
2023-01-01T04:10:22.209Z,97197.19
2023-01-01T04:12:52.853Z,97189.66
2023-01-01T04:15:24.287Z,97194.84
2023-01-01T04:17:54.702Z,97187.72
2023-01-01T04:20:23.877Z,97201.38
2023-01-01T04:22:53.222Z,97201.25
2023-01-01T04:25:21.611Z,97202.50
2023-01-01T04:27:50.309Z,97197.97
2023-01-01T04:30:19.778Z,97202.41
2023-01-01T04:32:48.678Z,97192.66
2023-01-01T04:35:18.909Z,97198.94
2023-01-01T04:37:47.383Z,97196.16
2023-01-01T04:40:15.935Z,97195.16
2023-01-01T04:42:44.554Z,97203.56
2023-01-01T04:45:15.529Z,97205.13
2023-01-01T04:47:44.706Z,97209.03
2023-01-01T04:50:13.151Z,97209.56
2023-01-01T04:52:42.914Z,97206.38
2023-01-01T04:55:11.356Z,97204.84
2023-01-01T04:57:39.909Z,97208.84
2023-01-01T05:00:09.554Z,97207.19
2023-01-01T05:02:37.904Z,97211.25
2023-01-01T05:05:06.503Z,97215.53
2023-01-01T05:07:34.936Z,97208.41
2023-01-01T05:10:05.182Z,97213.13
2023-01-01T05:12:33.332Z,97212.69
2023-01-01T05:15:01.987Z,97217.25
2023-01-01T05:17:30.744Z,97218.22
2023-01-01T05:19:59.833Z,97216.50
2023-01-01T05:22:28.121Z,97222.66
2023-01-01T05:24:56.371Z,97219.25
2023-01-01T05:27:26.513Z,97216.16
2023-01-01T05:29:54.688Z,97223.75
2023-01-01T05:32:23.191Z,97218.50
2023-01-01T05:34:51.700Z,97216.13
2023-01-01T05:37:20.167Z,97222.66
2023-01-01T05:39:49.459Z,97227.03
2023-01-01T05:42:19.144Z,97229.97
2023-01-01T05:44:48.732Z,97230.59
2023-01-01T05:47:18.682Z,97235.06
2023-01-01T05:49:48.241Z,97241.84
2023-01-01T05:52:24.610Z,97239.72
2023-01-01T05:54:54.796Z,97243.09
2023-01-01T05:57:23.371Z,97247.41
2023-01-01T05:59:53.050Z,97255.72
2023-01-01T06:02:22.089Z,97244.16
2023-01-01T06:04:51.296Z,97245.72
2023-01-01T06:07:19.564Z,97241.41
2023-01-01T06:09:47.764Z,97245.72
2023-01-01T06:12:16.007Z,97237.19
2023-01-01T06:14:44.538Z,97249.38
2023-01-01T06:17:14.167Z,97252.31
2023-01-01T06:19:42.679Z,97253.38
2023-01-01T06:22:11.019Z,97266.91
2023-01-01T06:24:39.573Z,97270.91
2023-01-01T06:27:08.103Z,97273.16
2023-01-01T06:29:36.420Z,97271.09
2023-01-01T06:32:04.940Z,97275.31
2023-01-01T06:34:34.836Z,97271.44
2023-01-01T06:37:06.720Z,97278.13
2023-01-01T06:39:35.861Z,97275.38
2023-01-01T06:42:04.297Z,97279.16
2023-01-01T06:44:32.948Z,97283.66
2023-01-01T06:47:01.318Z,97276.66
2023-01-01T06:49:29.933Z,97274.19
2023-01-01T06:52:00.123Z,97275.88
2023-01-01T06:54:28.578Z,97268.94
2023-01-01T06:56:57.074Z,97267.47
2023-01-01T06:59:25.767Z,97277.38
2023-01-01T07:01:54.425Z,97277.34
2023-01-01T07:04:23.334Z,97286.75
2023-01-01T07:06:51.704Z,97287.28
2023-01-01T07:09:21.837Z,97290.84
2023-01-01T07:11:50.110Z,97293.75
2023-01-01T07:14:18.730Z,97290.44
2023-01-01T07:16:47.113Z,97288.47
2023-01-01T07:19:15.571Z,97285.47
2023-01-01T07:21:46.188Z,97288.72
2023-01-01T07:24:17.075Z,97295.66
2023-01-01T07:26:47.050Z,97297.13
2023-01-01T07:29:15.987Z,97293.00
2023-01-01T07:31:45.739Z,97293.97
2023-01-01T07:34:16.774Z,97298.66
2023-01-01T07:36:45.281Z,97302.75
2023-01-01T07:39:13.673Z,97317.53
2023-01-01T07:41:42.219Z,97320.88
2023-01-01T07:44:12.232Z,97321.91
2023-01-01T07:46:40.580Z,97325.69
2023-01-01T07:49:09.592Z,97322.09
2023-01-01T07:51:38.534Z,97328.38
2023-01-01T07:54:07.785Z,97329.13
2023-01-01T07:56:36.637Z,97324.34
2023-01-01T07:59:05.299Z,97329.13
2023-01-01T08:01:37.046Z,97330.56
2023-01-01T08:04:06.519Z,97322.94
2023-01-01T08:06:35.040Z,97314.81
2023-01-01T08:09:03.863Z,97329.91
2023-01-01T08:11:32.391Z,97313.78
2023-01-01T08:14:00.937Z,97319.53
2023-01-01T08:16:29.197Z,97321.66
2023-01-01T08:18:59.869Z,97326.53
2023-01-01T08:21:28.249Z,97321.09
2023-01-01T08:23:56.961Z,97321.84
2023-01-01T08:26:30.467Z,97340.72
2023-01-01T08:28:59.344Z,97339.13
2023-01-01T08:31:28.298Z,97339.47
2023-01-01T08:33:58.649Z,97344.88
2023-01-01T08:36:27.390Z,97356.63
2023-01-01T08:38:56.048Z,97366.06
2023-01-01T08:41:24.678Z,97372.91
2023-01-01T08:43:53.079Z,97365.56
2023-01-01T08:46:21.574Z,97352.56
2023-01-01T08:48:50.028Z,97361.22
2023-01-01T08:51:20.350Z,97357.63
2023-01-01T08:53:51.269Z,97365.38
2023-01-01T08:56:21.037Z,97379.25
2023-01-01T08:58:50.304Z,97376.47
2023-01-01T09:01:21.876Z,97375.03
2023-01-01T09:03:50.661Z,97367.78
2023-01-01T09:06:20.819Z,97366.75
2023-01-01T09:08:49.311Z,97369.19
2023-01-01T09:11:24.142Z,97358.38
2023-01-01T09:13:53.812Z,97378.94
2023-01-01T09:16:23.453Z,97378.00
2023-01-01T09:18:52.223Z,97388.41
2023-01-01T09:21:22.689Z,97379.84
2023-01-01T09:23:51.165Z,97383.56
2023-01-01T09:26:19.952Z,97397.75
2023-01-01T09:28:48.409Z,97392.19
2023-01-01T09:31:16.850Z,97407.28
2023-01-01T09:33:46.131Z,97401.22
2023-01-01T09:36:17.313Z,97400.59
2023-01-01T09:38:51.539Z,97403.28
2023-01-01T09:41:29.003Z,97402.63
2023-01-01T09:44:09.597Z,97401.88
2023-01-01T09:46:38.287Z,97411.16
2023-01-01T09:49:16.228Z,97410.28
2023-01-01T09:51:55.683Z,97413.06
2023-01-01T09:54:30.777Z,97417.59
2023-01-01T09:57:01.573Z,97412.53
2023-01-01T09:59:30.327Z,97422.25
2023-01-01T10:02:05.303Z,97422.69
2023-01-01T10:04:53.342Z,97425.72
2023-01-01T10:07:31.119Z,97427.84
2023-01-01T10:10:11.458Z,97435.53
2023-01-01T10:12:49.663Z,97432.63
2023-01-01T10:15:22.845Z,97432.94
2023-01-01T10:17:56.137Z,97427.28
2023-01-01T10:20:29.945Z,97428.75
2023-01-01T10:23:05.326Z,97412.84
2023-01-01T10:25:36.217Z,97417.97
2023-01-01T10:28:09.607Z,97422.19
2023-01-01T10:30:38.812Z,97419.47
2023-01-01T10:33:14.081Z,97407.44
2023-01-01T10:35:47.457Z,97411.75
2023-01-01T10:38:24.025Z,97416.03
2023-01-01T10:40:58.028Z,97408.97
2023-01-01T10:43:27.023Z,97405.91
2023-01-01T10:45:58.303Z,97412.00
2023-01-01T10:48:30.637Z,97408.78
2023-01-01T10:51:03.417Z,97407.94
2023-01-01T10:53:34.513Z,97405.81
2023-01-01T10:56:13.608Z,97413.00
2023-01-01T10:58:45.787Z,97400.47
2023-01-01T11:01:22.394Z,97411.75
2023-01-01T11:03:56.259Z,97407.59
2023-01-01T11:06:26.990Z,97398.13
2023-01-01T11:08:57.122Z,97410.41
2023-01-01T11:11:34.311Z,97415.81
2023-01-01T11:14:06.349Z,97421.84
2023-01-01T11:16:39.976Z,97420.00
2023-01-01T11:19:10.450Z,97416.34
2023-01-01T11:21:47.452Z,97418.19
2023-01-01T11:24:22.277Z,97404.13
2023-01-01T11:26:55.361Z,97408.09
2023-01-01T11:29:29.939Z,97404.19
2023-01-01T11:32:01.019Z,97399.75
2023-01-01T11:34:33.294Z,97403.03
2023-01-01T11:37:25.425Z,97408.31
2023-01-01T11:39:56.206Z,97407.94
2023-01-01T11:42:29.266Z,97400.16
2023-01-01T11:45:00.365Z,97398.63
2023-01-01T11:47:32.080Z,97405.28
2023-01-01T11:50:05.956Z,97409.88
2023-01-01T11:52:40.674Z,97405.06
2023-01-01T11:55:20.071Z,97403.19
2023-01-01T11:57:59.034Z,97396.78
2023-01-01T12:00:30.219Z,97399.28
2023-01-01T12:03:02.620Z,97391.69
2023-01-01T12:05:43.735Z,97387.22
2023-01-01T12:08:20.365Z,97388.97
2023-01-01T12:10:53.391Z,97388.47
2023-01-01T12:13:28.221Z,97384.75
2023-01-01T12:16:07.481Z,97377.81
2023-01-01T12:18:45.050Z,97372.91
2023-01-01T12:21:19.378Z,97381.38
2023-01-01T12:23:48.165Z,97379.06
2023-01-01T12:26:23.912Z,97375.38
2023-01-01T12:29:30.788Z,97374.75
2023-01-01T12:32:08.716Z,97376.53
2023-01-01T12:34:45.083Z,97375.25
2023-01-01T12:37:22.103Z,97386.59
2023-01-01T12:40:25.043Z,97386.94
2023-01-01T12:43:03.325Z,97392.72
2023-01-01T12:45:52.073Z,97388.47
2023-01-01T12:48:35.324Z,97389.31
2023-01-01T12:51:15.058Z,97381.53
2023-01-01T12:53:53.977Z,97386.00
2023-01-01T12:56:32.498Z,97382.09
2023-01-01T12:59:08.486Z,97373.22
2023-01-01T13:01:42.049Z,97370.00
2023-01-01T13:04:16.711Z,97368.84
2023-01-01T13:06:51.333Z,97368.31
2023-01-01T13:09:24.316Z,97365.09
2023-01-01T13:11:57.919Z,97365.72
2023-01-01T13:14:27.002Z,97363.09
2023-01-01T13:17:00.119Z,97355.03
2023-01-01T13:19:34.148Z,97359.94
2023-01-01T13:22:42.524Z,97359.94
2023-01-01T13:25:29.320Z,97362.69
2023-01-01T13:28:06.831Z,97357.38
2023-01-01T13:30:50.928Z,97363.56
2023-01-01T13:33:29.180Z,97364.72
2023-01-01T13:36:33.339Z,97372.34
2023-01-01T13:39:02.693Z,97371.19
2023-01-01T13:41:41.673Z,97377.34
2023-01-01T13:44:21.021Z,97378.03
2023-01-01T13:47:15.516Z,97372.53
2023-01-01T13:50:05.133Z,97382.84
2023-01-01T13:52:59.369Z,97381.06
2023-01-01T13:55:48.419Z,97368.75
2023-01-01T13:58:51.963Z,97380.69
2023-01-01T14:02:04.471Z,97375.69
2023-01-01T14:04:40.660Z,97375.91
2023-01-01T14:07:50.056Z,97380.63
2023-01-01T14:10:23.156Z,97388.38
2023-01-01T14:12:53.698Z,97395.16
2023-01-01T14:15:28.426Z,97393.69
2023-01-01T14:18:00.575Z,97397.72
2023-01-01T14:20:35.903Z,97395.00
2023-01-01T14:23:10.494Z,97401.84
2023-01-01T14:25:42.209Z,97401.72
2023-01-01T14:28:20.418Z,97403.50
2023-01-01T14:30:49.818Z,97398.06
2023-01-01T14:33:27.296Z,97407.22
2023-01-01T14:35:56.945Z,97412.63
2023-01-01T14:38:28.884Z,97418.31
2023-01-01T14:41:03.726Z,97417.56
2023-01-01T14:43:32.591Z,97427.22
2023-01-01T14:46:07.527Z,97436.47
2023-01-01T14:48:45.093Z,97444.84
2023-01-01T14:51:16.192Z,97449.31
2023-01-01T14:53:48.001Z,97455.09
2023-01-01T14:56:24.655Z,97460.66
2023-01-01T14:58:53.270Z,97462.44
2023-01-01T15:01:26.008Z,97475.06
2023-01-01T15:04:11.378Z,97468.50
2023-01-01T15:06:42.760Z,97467.38
2023-01-01T15:09:17.981Z,97468.03
2023-01-01T15:11:46.781Z,97479.59
2023-01-01T15:14:32.657Z,97483.22
2023-01-01T15:17:02.846Z,97472.63
2023-01-01T15:19:31.465Z,97479.88
2023-01-01T15:22:00.474Z,97491.34
2023-01-01T15:24:30.580Z,97488.22
2023-01-01T15:27:00.757Z,97484.09
2023-01-01T15:29:31.706Z,97475.00
2023-01-01T15:32:02.335Z,97493.44
2023-01-01T15:34:32.784Z,97479.31
2023-01-01T15:37:11.699Z,97484.53
2023-01-01T15:39:49.242Z,97479.50
2023-01-01T15:42:32.825Z,97484.69
2023-01-01T15:45:21.441Z,97481.31
2023-01-01T15:47:50.682Z,97480.13
2023-01-01T15:50:26.024Z,97484.53
2023-01-01T15:52:58.218Z,97482.97
2023-01-01T15:55:32.621Z,97492.75
2023-01-01T15:58:01.522Z,97490.22
2023-01-01T16:00:31.752Z,97496.44
2023-01-01T16:03:04.192Z,97494.94
2023-01-01T16:05:33.196Z,97494.56
2023-01-01T16:08:03.254Z,97503.19
2023-01-01T16:10:33.375Z,97499.09
2023-01-01T16:13:01.643Z,97501.22
2023-01-01T16:15:30.105Z,97504.78
2023-01-01T16:17:58.714Z,97507.56
2023-01-01T16:20:27.748Z,97503.25
2023-01-01T16:22:56.331Z,97502.78
2023-01-01T16:25:24.923Z,97497.13
2023-01-01T16:27:54.490Z,97490.28
2023-01-01T16:30:26.974Z,97496.81
2023-01-01T16:32:55.305Z,97507.53
2023-01-01T16:35:23.856Z,97513.13
2023-01-01T16:37:52.473Z,97518.13
2023-01-01T16:40:20.772Z,97517.78
2023-01-01T16:42:49.497Z,97521.03
2023-01-01T16:45:20.146Z,97516.28
2023-01-01T16:47:48.677Z,97506.84
2023-01-01T16:50:16.921Z,97519.69
2023-01-01T16:52:45.490Z,97515.81
2023-01-01T16:55:14.358Z,97518.78
2023-01-01T16:57:43.594Z,97515.81
2023-01-01T17:00:13.195Z,97515.09
2023-01-01T17:02:43.184Z,97512.19
2023-01-01T17:05:12.477Z,97510.47
2023-01-01T17:07:41.187Z,97505.75
2023-01-01T17:10:10.081Z,97510.28
2023-01-01T17:12:38.220Z,97503.63
2023-01-01T17:15:08.639Z,97499.69
2023-01-01T17:17:36.758Z,97505.16
2023-01-01T17:20:16.870Z,97505.34
2023-01-01T17:22:51.183Z,97510.56
2023-01-01T17:25:19.568Z,97517.66
2023-01-01T17:27:48.368Z,97505.81
2023-01-01T17:30:17.032Z,97508.41
2023-01-01T17:32:45.426Z,97500.13
2023-01-01T17:35:15.364Z,97488.63
2023-01-01T17:37:43.680Z,97496.03
2023-01-01T17:40:12.773Z,97495.41
2023-01-01T17:42:40.992Z,97502.47
2023-01-01T17:45:10.807Z,97501.22
2023-01-01T17:47:39.094Z,97504.38
2023-01-01T17:50:08.134Z,97506.69
2023-01-01T17:52:37.900Z,97509.25
2023-01-01T17:55:07.642Z,97499.72
2023-01-01T17:57:35.698Z,97501.34
2023-01-01T18:00:05.280Z,97499.69
2023-01-01T18:02:41.502Z,97497.44
2023-01-01T18:05:10.141Z,97502.88
2023-01-01T18:07:40.152Z,97491.91
2023-01-01T18:10:09.217Z,97492.44
2023-01-01T18:12:37.651Z,97497.59
2023-01-01T18:15:07.279Z,97502.72
2023-01-01T18:17:35.591Z,97500.50
2023-01-01T18:20:04.099Z,97492.28
2023-01-01T18:22:33.280Z,97489.13
2023-01-01T18:25:06.342Z,97482.63
2023-01-01T18:27:35.206Z,97489.53
2023-01-01T18:30:04.303Z,97485.19
2023-01-01T18:32:33.161Z,97492.66
2023-01-01T18:35:01.425Z,97498.81
2023-01-01T18:37:31.255Z,97504.09
2023-01-01T18:40:00.217Z,97503.00
2023-01-01T18:42:40.360Z,97502.25
2023-01-01T18:45:16.273Z,97502.38
2023-01-01T18:47:46.784Z,97505.56
2023-01-01T18:50:35.912Z,97511.75
2023-01-01T18:53:18.808Z,97510.75
2023-01-01T18:55:47.905Z,97512.84
2023-01-01T18:58:20.093Z,97499.59
2023-01-01T19:00:49.636Z,97501.28
2023-01-01T19:03:22.875Z,97498.06
2023-01-01T19:05:51.489Z,97500.38
2023-01-01T19:08:22.494Z,97505.63
2023-01-01T19:10:53.713Z,97516.13
2023-01-01T19:13:25.402Z,97514.06
2023-01-01T19:15:58.671Z,97515.16
2023-01-01T19:18:31.925Z,97507.56
2023-01-01T19:21:03.846Z,97521.28
2023-01-01T19:23:33.114Z,97524.19
2023-01-01T19:26:04.347Z,97531.09
2023-01-01T19:28:36.957Z,97522.41
2023-01-01T19:31:08.111Z,97516.75
2023-01-01T19:33:37.234Z,97514.94
2023-01-01T19:36:05.730Z,97517.81
2023-01-01T19:38:34.228Z,97509.69
2023-01-01T19:41:03.022Z,97521.47
2023-01-01T19:43:31.242Z,97521.53
2023-01-01T19:46:00.948Z,97517.47
2023-01-01T19:48:30.135Z,97519.81
2023-01-01T19:50:58.921Z,97522.72
2023-01-01T19:53:27.362Z,97521.13
2023-01-01T19:55:55.943Z,97519.84
2023-01-01T19:58:24.629Z,97519.44
2023-01-01T20:00:53.444Z,97514.88
2023-01-01T20:03:52.917Z,97515.25
2023-01-01T20:06:12.944Z,97521.25
2023-01-01T20:08:41.660Z,97529.91
2023-01-01T20:11:10.480Z,97529.09
2023-01-01T20:13:38.921Z,97529.25
2023-01-01T20:16:07.958Z,97523.59
2023-01-01T20:18:37.964Z,97523.22
2023-01-01T20:21:26.631Z,97528.06
2023-01-01T20:23:55.552Z,97531.84
2023-01-01T20:26:26.263Z,97534.53
2023-01-01T20:29:12.199Z,97528.25
2023-01-01T20:31:42.085Z,97523.66
2023-01-01T20:34:12.122Z,97522.63
2023-01-01T20:36:58.065Z,97523.41
2023-01-01T20:39:26.580Z,97511.31
2023-01-01T20:41:56.271Z,97512.66
2023-01-01T20:44:24.427Z,97519.41
2023-01-01T20:46:52.638Z,97520.38
2023-01-01T20:49:22.708Z,97523.59
2023-01-01T20:51:53.107Z,97519.41
2023-01-01T20:54:22.469Z,97515.75
2023-01-01T20:56:50.928Z,97508.53
2023-01-01T20:59:37.050Z,97507.00
2023-01-01T21:02:06.508Z,97497.13
2023-01-01T21:04:38.984Z,97495.25
2023-01-01T21:07:09.416Z,97496.78
2023-01-01T21:09:37.952Z,97491.38
2023-01-01T21:12:07.181Z,97496.97
2023-01-01T21:14:36.240Z,97504.19
2023-01-01T21:17:17.968Z,97506.59
2023-01-01T21:19:47.597Z,97509.91
2023-01-01T21:22:16.192Z,97513.97
2023-01-01T21:24:47.358Z,97511.63
2023-01-01T21:27:24.872Z,97506.19
2023-01-01T21:29:57.240Z,97506.81
2023-01-01T21:32:29.305Z,97499.66
2023-01-01T21:34:59.416Z,97493.72
2023-01-01T21:37:48.138Z,97505.47
2023-01-01T21:40:34.677Z,97499.81
2023-01-01T21:43:25.397Z,97494.97
2023-01-01T21:45:54.871Z,97484.22
2023-01-01T21:48:28.561Z,97487.47
2023-01-01T21:50:58.963Z,97479.94
2023-01-01T21:53:30.273Z,97482.69
2023-01-01T21:55:58.691Z,97469.78
2023-01-01T21:58:46.389Z,97467.16
2023-01-01T22:01:22.401Z,97470.50
2023-01-01T22:03:53.379Z,97468.31
2023-01-01T22:06:23.728Z,97461.88
2023-01-01T22:08:52.126Z,97457.63
2023-01-01T22:11:26.761Z,97450.28
2023-01-01T22:13:56.165Z,97450.84
2023-01-01T22:16:29.290Z,97441.91
2023-01-01T22:18:57.807Z,97441.47
2023-01-01T22:21:27.383Z,97444.41
2023-01-01T22:24:00.765Z,97446.88
2023-01-01T22:26:32.430Z,97450.75
2023-01-01T22:29:04.427Z,97437.81
2023-01-01T22:31:36.435Z,97441.22
2023-01-01T22:34:06.785Z,97444.13
2023-01-01T22:36:38.162Z,97443.03
2023-01-01T22:39:14.780Z,97442.34
2023-01-01T22:41:43.432Z,97437.56
2023-01-01T22:44:13.143Z,97446.69
2023-01-01T22:46:42.810Z,97439.72
2023-01-01T22:49:20.267Z,97433.25
2023-01-01T22:51:54.757Z,97438.09
2023-01-01T22:54:23.120Z,97437.59
2023-01-01T22:56:51.467Z,97418.88
2023-01-01T22:59:19.944Z,97430.03
2023-01-01T23:01:48.627Z,97415.16
2023-01-01T23:04:17.583Z,97421.63
2023-01-01T23:06:45.844Z,97421.00
2023-01-01T23:09:15.581Z,97425.00
2023-01-01T23:11:44.011Z,97424.31
2023-01-01T23:14:31.449Z,97425.94
2023-01-01T23:17:03.022Z,97418.50
2023-01-01T23:19:31.199Z,97421.38
2023-01-01T23:22:00.612Z,97418.88
2023-01-01T23:24:31.372Z,97411.72
2023-01-01T23:27:00.834Z,97417.72
2023-01-01T23:29:32.284Z,97416.00
2023-01-01T23:32:01.599Z,97417.00
2023-01-01T23:34:30.443Z,97412.78
2023-01-01T23:36:59.524Z,97411.88
2023-01-01T23:39:29.199Z,97412.41
2023-01-01T23:41:57.715Z,97406.44
2023-01-01T23:44:25.865Z,97410.75
2023-01-01T23:46:54.577Z,97407.56
2023-01-01T23:49:23.599Z,97418.47
2023-01-01T23:51:52.816Z,97416.34
2023-01-01T23:54:21.026Z,97404.88
2023-01-01T23:56:50.736Z,97403.28
2023-01-01T23:59:19.021Z,97398.81
